Terminal Aerodrome Forecast
Issued by NWS

Home | Current Version | Previous Version | Text Only | Print | Product List | Glossary On
Versions: 1 2 3 4 5 6 7 8 9 10 11 12 13 14 15 16 17 18 19 20 21 22 23 24
000
FTUS43 KGRR 190500 RRA
TAFAZO
TAF
KAZO 190542Z 1906/2006 27005KT 5SM BR SCT008 OVC015
      TEMPO 1906/1908 3SM -FZDZSN BR BKN008
     FM190800 32004KT P6SM OVC025
     FM191200 VRB03KT P6SM BKN040
     FM191600 34003KT P6SM SCT040=

USA.gov is the U.S. government's official web portal to all federal, state and local government web resources and services.